This is the latest recevied weather packets stored in our database for station/object DH1FR-13. If no packets are shown the sender has not sent any weather packets the latest 10 day(s).
| Time | Temp. | Humidity | Pressure | Rain* | Wind** | Luminosity | Snow |
|---|---|---|---|---|---|---|---|
| 1787580000 | 22.22° C | 46% | 1023.5 hPa | 0 mm | 0 m/s | - | - |
| 1787579401 | 21.67° C | 47% | 1023.5 hPa | 0 mm | 0 m/s | - | - |
| 1787578801 | 21.11° C | 48% | 1023.6 hPa | 0 mm | 0 m/s | - | - |
| 1787578201 | 22.22° C | 48% | 1023.9 hPa | 0 mm | 0 m/s | - | - |
| 1787577601 | 21.67° C | 48% | 1023.9 hPa | 0 mm | 0 m/s | - | - |
| 1787577000 | 22.22° C | 49% | 1023.8 hPa | 0 mm | 0 m/s | - | - |
| 1787576400 | 22.22° C | 48% | 1023.8 hPa | 0 mm | 0 m/s | - | - |
| 1787575801 | 20.56° C | 49% | 1024.1 hPa | 0 mm | 0 m/s | - | - |
| 1787575201 | 21.11° C | 49% | 1024 hPa | 0 mm | 0 m/s | - | - |
| 1787574601 | 21.67° C | 51% | 1024.2 hPa | 0 mm | 0 m/s | - | - |
| 1787574000 | 20.56° C | 51% | 1024.3 hPa | 0 mm | 0 m/s | - | - |
| 1787573401 | 21.11° C | 52% | 1024.3 hPa | 0 mm | 0 m/s | - | - |
| 1787572801 | 21.67° C | 52% | 1024.3 hPa | 0 mm | 0 m/s | - | - |
| 1787572200 | 21.11° C | 53% | 1024.6 hPa | 0 mm | 0 m/s | - | - |
| 1787571601 | 20° C | 55% | 1024.7 hPa | 0 mm | 0 m/s | - | - |
| 1787571000 | 20° C | 54% | 1025 hPa | 0 mm | 0 m/s | - | - |
| 1787570401 | 20° C | 56% | 1025.2 hPa | 0 mm | 0 m/s | - | - |
| 1787569800 | 18.89° C | 60% | 1025.2 hPa | 0 mm | 0 m/s | - | - |
| 1787569200 | 19.44° C | 58% | 1025.4 hPa | 0 mm | 0 m/s | - | - |
| 1787568601 | 18.89° C | 59% | 1025.3 hPa | 0 mm | 0 m/s | - | - |
| 1787568001 | 18.33° C | 62% | 1025.5 hPa | 0 mm | 0 m/s | - | - |
| 1787567400 | 19.44° C | 60% | 1025.7 hPa | 0 mm | 0 m/s | - | - |
| 1787566801 | 18.89° C | 61% | 1025.6 hPa | 0 mm | 0 m/s | - | - |
| 1787566201 | 18.89° C | 61% | 1025.8 hPa | 0 mm | 0 m/s | - | - |
| 1787565600 | 18.33° C | 62% | 1025.8 hPa | 0 mm | 0 m/s | - | - |
* Rain latest hour (hover to see other rain measurements)
** Current wind speed in m/s (hover to see current wind gust speed)